createdAt,value
2022-12-08T00:01:12.108Z,15.40
2022-12-08T00:03:39.249Z,16.50
2022-12-08T00:06:25.777Z,15.10
2022-12-08T00:09:11.171Z,14.73
2022-12-08T00:11:39.054Z,17.15
2022-12-08T00:14:05.849Z,18.67
2022-12-08T00:16:32.485Z,21.80
2022-12-08T00:18:59.094Z,20.02
2022-12-08T00:21:25.699Z,19.67
2022-12-08T00:23:55.270Z,16.77
2022-12-08T00:26:22.037Z,16.98
2022-12-08T00:28:48.790Z,17.52
2022-12-08T00:31:16.848Z,15.85
2022-12-08T00:33:43.433Z,16.35
2022-12-08T00:36:13.148Z,19.17
2022-12-08T00:38:40.595Z,16.65
2022-12-08T00:41:12.223Z,18.13
2022-12-08T00:43:38.854Z,16.58
2022-12-08T00:46:05.695Z,17.63
2022-12-08T00:48:32.320Z,17.75
2022-12-08T00:50:59.022Z,18.77
2022-12-08T00:53:25.628Z,17.95
2022-12-08T00:55:52.167Z,25.63
2022-12-08T00:58:18.799Z,25.58
2022-12-08T01:00:45.449Z,20.40
2022-12-08T01:03:13.324Z,21.23
2022-12-08T01:05:39.984Z,22.55
2022-12-08T01:08:07.759Z,18.63
2022-12-08T01:10:39.608Z,20.00
2022-12-08T01:13:06.331Z,21.10
2022-12-08T01:15:32.944Z,16.23
2022-12-08T01:17:59.537Z,14.73
2022-12-08T01:20:26.146Z,14.00
2022-12-08T01:22:52.804Z,16.17
2022-12-08T01:25:19.406Z,15.45
2022-12-08T01:27:45.989Z,16.55
2022-12-08T01:30:13.371Z,16.73
2022-12-08T01:32:40.000Z,19.48
2022-12-08T01:35:06.783Z,21.15
2022-12-08T01:37:33.573Z,21.42
2022-12-08T01:40:00.173Z,21.20
2022-12-08T01:42:26.744Z,21.48
2022-12-08T01:44:55.123Z,22.83
2022-12-08T01:47:24.780Z,24.20
2022-12-08T01:49:51.501Z,22.50
2022-12-08T01:52:29.226Z,20.45
2022-12-08T01:55:02.325Z,17.58
2022-12-08T01:57:37.058Z,18.50
2022-12-08T02:00:10.026Z,18.45
2022-12-08T02:02:52.946Z,20.98
2022-12-08T02:05:22.784Z,21.02
2022-12-08T02:07:49.863Z,21.60
2022-12-08T02:10:19.318Z,22.33
2022-12-08T02:12:47.636Z,21.65
2022-12-08T02:15:15.134Z,22.65
2022-12-08T02:18:23.146Z,17.42
2022-12-08T02:20:49.681Z,16.95
2022-12-08T02:23:42.511Z,15.93
2022-12-08T02:26:27.046Z,19.27
2022-12-08T02:28:56.613Z,19.23
2022-12-08T02:31:41.736Z,16.80
2022-12-08T02:34:11.180Z,15.43
2022-12-08T02:36:59.652Z,16.80
2022-12-08T02:39:33.367Z,16.80
2022-12-08T02:42:16.068Z,19.75
2022-12-08T02:44:56.462Z,20.33
2022-12-08T02:47:25.085Z,20.13
2022-12-08T02:49:51.642Z,19.65
2022-12-08T02:52:18.165Z,18.20
2022-12-08T02:54:56.954Z,17.23
2022-12-08T02:57:51.576Z,16.45
2022-12-08T03:00:24.545Z,16.33
2022-12-08T03:03:16.203Z,15.82
2022-12-08T03:06:23.071Z,15.88
2022-12-08T03:09:02.645Z,16.48
2022-12-08T03:11:47.766Z,17.13
2022-12-08T03:14:17.466Z,16.90
2022-12-08T03:16:49.561Z,17.08
2022-12-08T03:19:20.084Z,19.15
2022-12-08T03:22:02.957Z,19.95
2022-12-08T03:24:36.763Z,21.77
2022-12-08T03:27:21.854Z,21.58
2022-12-08T03:29:51.303Z,20.73
2022-12-08T03:32:34.570Z,21.02
2022-12-08T03:35:05.376Z,20.98
2022-12-08T03:37:35.685Z,21.42
2022-12-08T03:40:04.411Z,24.35
2022-12-08T03:42:31.158Z,26.92
2022-12-08T03:44:57.734Z,28.95
2022-12-08T03:47:24.305Z,29.98
2022-12-08T03:49:50.894Z,21.83
2022-12-08T03:52:17.539Z,20.35
2022-12-08T03:54:44.118Z,21.85
2022-12-08T03:57:10.677Z,19.95
2022-12-08T03:59:37.304Z,19.75
2022-12-08T04:02:04.018Z,21.08
2022-12-08T04:04:30.792Z,20.10
2022-12-08T04:06:57.379Z,16.50
2022-12-08T04:09:24.003Z,19.42
2022-12-08T04:11:50.684Z,16.73
2022-12-08T04:14:17.253Z,18.10
2022-12-08T04:16:43.866Z,24.85
2022-12-08T04:19:10.412Z,23.27
2022-12-08T04:21:36.938Z,17.65
2022-12-08T04:24:03.717Z,16.70
2022-12-08T04:26:30.302Z,17.95
2022-12-08T04:28:56.898Z,15.98
2022-12-08T04:31:23.600Z,18.08
2022-12-08T04:33:50.187Z,16.73
2022-12-08T04:36:16.777Z,18.13
2022-12-08T04:38:43.310Z,18.38
2022-12-08T04:41:10.208Z,18.05
2022-12-08T04:43:37.205Z,20.35
2022-12-08T04:46:07.326Z,22.75
2022-12-08T04:48:34.317Z,28.60
2022-12-08T04:51:00.911Z,31.15
2022-12-08T04:53:27.469Z,28.23
2022-12-08T04:55:54.049Z,35.30
2022-12-08T04:58:21.417Z,40.50
2022-12-08T05:00:48.305Z,35.28
2022-12-08T05:03:15.867Z,26.30
2022-12-08T05:05:43.553Z,21.65
2022-12-08T05:08:10.970Z,19.38
2022-12-08T05:10:37.841Z,17.90
2022-12-08T05:13:04.407Z,18.58
2022-12-08T05:15:31.023Z,16.17
2022-12-08T05:17:57.599Z,16.65
2022-12-08T05:20:24.133Z,18.38
2022-12-08T05:22:50.722Z,19.17
2022-12-08T05:25:17.448Z,17.02
2022-12-08T05:27:44.045Z,18.83
2022-12-08T05:30:10.859Z,17.30
2022-12-08T05:32:37.449Z,16.38
2022-12-08T05:35:04.162Z,14.88
2022-12-08T05:37:31.019Z,15.68
2022-12-08T05:39:57.571Z,15.02
2022-12-08T05:42:25.171Z,16.35
2022-12-08T05:44:52.364Z,16.77
2022-12-08T05:47:18.997Z,15.30
2022-12-08T05:49:45.562Z,16.08
2022-12-08T05:52:12.141Z,30.77
2022-12-08T05:54:38.779Z,73.30
2022-12-08T05:57:05.365Z,45.30
2022-12-08T05:59:31.941Z,26.58
2022-12-08T06:01:58.578Z,24.42
2022-12-08T06:04:25.310Z,18.77
2022-12-08T06:06:52.376Z,15.77
2022-12-08T06:09:18.988Z,15.02
2022-12-08T06:11:47.157Z,16.25
2022-12-08T06:14:13.771Z,16.00
2022-12-08T06:16:40.521Z,16.30
2022-12-08T06:19:07.161Z,18.40
2022-12-08T06:21:33.788Z,18.67
2022-12-08T06:24:00.343Z,19.30
2022-12-08T06:26:26.998Z,18.85
2022-12-08T06:28:53.671Z,18.55
2022-12-08T06:31:23.048Z,18.33
2022-12-08T06:33:50.429Z,20.13
2022-12-08T06:36:19.417Z,17.60
2022-12-08T06:38:46.254Z,17.15
2022-12-08T06:41:13.899Z,16.63
2022-12-08T06:43:41.350Z,17.67
2022-12-08T06:46:11.566Z,18.98
2022-12-08T06:48:38.203Z,20.35
2022-12-08T06:51:10.918Z,19.77
2022-12-08T06:53:38.561Z,21.38
2022-12-08T06:56:06.332Z,21.92
2022-12-08T06:58:33.212Z,21.42
2022-12-08T07:01:08.540Z,27.52
2022-12-08T07:03:36.456Z,27.80
2022-12-08T07:06:04.319Z,23.83
2022-12-08T07:08:32.049Z,22.70
2022-12-08T07:10:58.913Z,23.65
2022-12-08T07:13:25.578Z,27.58
2022-12-08T07:15:52.241Z,30.80
2022-12-08T07:18:18.861Z,34.95
2022-12-08T07:20:45.513Z,37.90
2022-12-08T07:23:12.248Z,34.45
2022-12-08T07:25:38.949Z,25.95
2022-12-08T07:28:10.254Z,26.98
2022-12-08T07:30:37.091Z,24.92
2022-12-08T07:33:05.792Z,24.70
2022-12-08T07:35:34.844Z,25.77
2022-12-08T07:38:02.380Z,24.50
2022-12-08T07:40:29.164Z,27.05
2022-12-08T07:42:55.785Z,29.33
2022-12-08T07:45:24.670Z,25.25
2022-12-08T07:47:56.457Z,25.67
2022-12-08T07:50:23.348Z,26.98
2022-12-08T07:52:49.952Z,25.92
2022-12-08T07:55:16.562Z,25.15
2022-12-08T07:57:43.538Z,23.70
2022-12-08T08:00:10.942Z,24.90
2022-12-08T08:02:37.589Z,23.65
2022-12-08T08:05:04.774Z,24.92
2022-12-08T08:07:32.356Z,23.55
2022-12-08T08:09:59.022Z,23.02
2022-12-08T08:12:33.348Z,35.47
2022-12-08T08:15:01.810Z,28.08
2022-12-08T08:17:29.891Z,25.33
2022-12-08T08:19:56.942Z,23.30
2022-12-08T08:22:25.386Z,20.27
2022-12-08T08:24:52.149Z,19.33
2022-12-08T08:27:19.025Z,20.52
2022-12-08T08:29:45.686Z,20.25
2022-12-08T08:32:12.384Z,19.52
2022-12-08T08:34:39.347Z,19.75
2022-12-08T08:37:06.271Z,19.05
2022-12-08T08:39:33.050Z,18.35
2022-12-08T08:41:59.699Z,18.58
2022-12-08T08:44:26.382Z,16.45
2022-12-08T08:46:53.274Z,17.88
2022-12-08T08:49:20.366Z,17.27
2022-12-08T08:51:47.364Z,18.50
2022-12-08T08:54:14.134Z,17.05
2022-12-08T08:56:40.792Z,16.73
2022-12-08T08:59:07.724Z,17.50
2022-12-08T09:01:34.394Z,17.15
2022-12-08T09:04:01.637Z,17.02
2022-12-08T09:06:28.491Z,15.68
2022-12-08T09:08:55.371Z,16.67
2022-12-08T09:11:23.542Z,20.45
2022-12-08T09:13:51.822Z,16.73
2022-12-08T09:16:19.391Z,15.90
2022-12-08T09:18:46.342Z,18.67
2022-12-08T09:21:16.624Z,17.88
2022-12-08T09:23:43.536Z,16.63
2022-12-08T09:26:10.621Z,16.75
2022-12-08T09:28:37.864Z,17.33
2022-12-08T09:31:04.883Z,17.58
2022-12-08T09:33:31.755Z,17.75
2022-12-08T09:36:03.127Z,15.45
2022-12-08T09:38:29.847Z,16.15
2022-12-08T09:40:56.746Z,15.95
2022-12-08T09:43:51.697Z,17.10
2022-12-08T09:46:20.389Z,17.95
2022-12-08T09:48:56.039Z,16.75
2022-12-08T09:51:30.508Z,19.90
2022-12-08T09:54:18.376Z,26.27
2022-12-08T09:56:45.171Z,22.85
2022-12-08T09:59:22.894Z,17.63
2022-12-08T10:01:50.104Z,17.42
2022-12-08T10:04:22.328Z,18.20
2022-12-08T10:06:58.067Z,18.40
2022-12-08T10:09:43.582Z,17.38
2022-12-08T10:12:26.157Z,18.27
2022-12-08T10:14:52.639Z,16.95
2022-12-08T10:17:23.994Z,18.42
2022-12-08T10:19:57.740Z,16.83
2022-12-08T10:22:27.037Z,14.98
2022-12-08T10:25:19.124Z,15.02
2022-12-08T10:27:49.866Z,15.95
2022-12-08T10:30:19.047Z,17.38
2022-12-08T10:32:49.227Z,19.17
2022-12-08T10:35:18.272Z,20.55
2022-12-08T10:38:02.316Z,21.98
2022-12-08T10:40:40.581Z,17.13
2022-12-08T10:43:17.614Z,20.20
2022-12-08T10:45:45.079Z,16.50
2022-12-08T10:48:17.021Z,14.02
2022-12-08T10:50:54.488Z,13.60
2022-12-08T10:53:30.200Z,14.50
2022-12-08T10:56:02.562Z,19.83
2022-12-08T10:58:41.120Z,14.53
2022-12-08T11:01:18.914Z,12.80
2022-12-08T11:03:58.137Z,12.65
2022-12-08T11:06:32.266Z,11.77
2022-12-08T11:09:01.812Z,12.48
2022-12-08T11:11:55.365Z,12.95
2022-12-08T11:14:37.057Z,14.00
2022-12-08T11:17:13.671Z,13.68
2022-12-08T11:20:03.621Z,11.15
2022-12-08T11:22:30.673Z,10.65
2022-12-08T11:25:00.355Z,10.95
2022-12-08T11:27:27.036Z,10.82
2022-12-08T11:29:55.218Z,13.73
2022-12-08T11:32:22.526Z,13.52
2022-12-08T11:34:54.777Z,13.30
2022-12-08T11:37:34.507Z,16.17
2022-12-08T11:40:07.278Z,16.05
2022-12-08T11:42:53.692Z,15.18
2022-12-08T11:45:26.678Z,13.80
2022-12-08T11:48:08.676Z,13.90
2022-12-08T11:51:00.082Z,15.35
2022-12-08T11:53:34.162Z,14.43
2022-12-08T11:56:10.258Z,14.15
2022-12-08T11:58:46.192Z,11.05
2022-12-08T12:01:20.489Z,10.98
2022-12-08T12:04:09.651Z,11.88
2022-12-08T12:07:14.554Z,11.25
2022-12-08T12:10:08.488Z,11.65
2022-12-08T12:15:34.300Z,12.63
2022-12-08T12:18:16.475Z,12.63
2022-12-08T12:20:49.813Z,12.48
2022-12-08T12:23:35.222Z,14.40
2022-12-08T12:26:05.544Z,12.60
2022-12-08T12:28:57.476Z,17.23
2022-12-08T12:31:38.563Z,46.30
2022-12-08T12:34:11.664Z,31.50
2022-12-08T12:36:51.765Z,13.88
2022-12-08T12:39:26.340Z,13.40
2022-12-08T12:42:01.564Z,15.60
2022-12-08T12:44:28.050Z,12.50
2022-12-08T12:46:59.152Z,12.02
2022-12-08T12:49:40.988Z,10.15
2022-12-08T12:52:10.540Z,10.88
2022-12-08T12:54:42.888Z,11.02
2022-12-08T12:57:09.757Z,11.00
2022-12-08T12:59:55.191Z,10.40
2022-12-08T13:02:33.724Z,10.00
2022-12-08T13:05:16.358Z,11.45
2022-12-08T13:08:03.527Z,10.35
2022-12-08T13:10:30.076Z,9.32
2022-12-08T13:13:05.709Z,10.02
2022-12-08T13:15:38.831Z,10.82
2022-12-08T13:18:07.586Z,9.13
2022-12-08T13:20:45.996Z,11.15
2022-12-08T13:23:37.309Z,10.25
2022-12-08T13:26:16.077Z,10.02
2022-12-08T13:29:20.160Z,9.68
2022-12-08T13:31:51.076Z,9.20
2022-12-08T13:34:41.303Z,10.18
2022-12-08T13:37:10.575Z,9.73
2022-12-08T13:39:40.165Z,10.30
2022-12-08T13:42:12.796Z,9.40
2022-12-08T13:45:21.293Z,9.35
2022-12-08T13:48:27.025Z,9.35
2022-12-08T13:57:26.931Z,9.75
2022-12-08T13:59:53.582Z,8.93
2022-12-08T14:02:47.799Z,8.55
2022-12-08T14:05:18.958Z,8.32
2022-12-08T14:08:10.139Z,8.35
2022-12-08T14:10:36.837Z,8.60
2022-12-08T14:13:12.382Z,9.95
2022-12-08T14:15:40.194Z,7.97
2022-12-08T14:18:23.741Z,8.95
2022-12-08T14:21:20.859Z,8.73
2022-12-08T14:23:48.103Z,8.55
2022-12-08T14:26:14.746Z,8.70
2022-12-08T14:28:44.951Z,8.27
2022-12-08T14:31:14.056Z,9.13
2022-12-08T14:33:40.899Z,8.60
2022-12-08T14:36:09.860Z,9.32
2022-12-08T14:38:36.501Z,9.60
2022-12-08T14:41:04.809Z,10.70
2022-12-08T14:43:32.619Z,11.57
2022-12-08T14:46:02.372Z,10.95
2022-12-08T14:48:34.836Z,14.88
2022-12-08T14:51:04.225Z,12.52
2022-12-08T14:53:40.348Z,11.85
2022-12-08T14:56:13.087Z,12.88
2022-12-08T14:58:39.828Z,16.50
2022-12-08T15:01:08.335Z,18.17
2022-12-08T15:03:35.037Z,19.35
2022-12-08T15:06:06.361Z,23.73
2022-12-08T15:08:34.853Z,24.08
2022-12-08T15:11:36.526Z,26.17
2022-12-08T15:14:03.261Z,30.33
2022-12-08T15:16:42.927Z,36.10
2022-12-08T15:19:28.411Z,35.72
2022-12-08T15:21:58.270Z,34.22
2022-12-08T15:24:29.642Z,37.45
2022-12-08T15:26:56.369Z,30.40
2022-12-08T15:29:25.482Z,30.85
2022-12-08T15:31:54.656Z,32.13
2022-12-08T15:34:21.894Z,28.42
2022-12-08T15:36:51.165Z,28.52
2022-12-08T15:39:37.507Z,28.15
2022-12-08T15:42:10.528Z,34.63
2022-12-08T15:44:37.103Z,38.05
2022-12-08T15:47:04.063Z,33.10
2022-12-08T15:49:30.863Z,36.65
2022-12-08T15:52:09.286Z,38.22
2022-12-08T15:54:38.045Z,43.28
2022-12-08T15:57:19.573Z,42.70
2022-12-08T15:59:52.373Z,34.22
2022-12-08T16:02:22.513Z,30.23
2022-12-08T16:07:38.263Z,34.30
2022-12-08T16:10:06.872Z,34.08
2022-12-08T16:16:01.017Z,28.67
2022-12-08T16:18:32.717Z,29.80
2022-12-08T16:23:46.131Z,31.42
2022-12-08T16:27:01.132Z,31.92
2022-12-08T16:29:06.950Z,37.97
2022-12-08T16:31:33.890Z,39.13
2022-12-08T16:34:00.665Z,36.20
2022-12-08T16:36:27.285Z,32.97
2022-12-08T16:38:53.922Z,32.75
2022-12-08T16:41:39.381Z,35.72
2022-12-08T16:44:06.706Z,34.60
2022-12-08T16:46:33.749Z,31.13
2022-12-08T16:49:00.381Z,28.88
2022-12-08T16:51:27.628Z,29.25
2022-12-08T16:53:56.882Z,33.17
2022-12-08T16:56:28.959Z,33.75
2022-12-08T16:58:58.723Z,30.83
2022-12-08T17:01:25.377Z,32.88
2022-12-08T17:04:14.756Z,32.97
2022-12-08T17:06:38.626Z,29.30
2022-12-08T17:09:05.440Z,26.25
2022-12-08T17:11:37.439Z,23.85
2022-12-08T17:14:09.264Z,24.10
2022-12-08T17:16:35.938Z,23.92
2022-12-08T17:19:02.629Z,27.50
2022-12-08T17:21:29.250Z,33.33
2022-12-08T17:23:55.965Z,29.50
2022-12-08T17:26:22.555Z,30.40
2022-12-08T17:29:00.602Z,30.15
2022-12-08T17:31:30.615Z,30.50
2022-12-08T17:34:02.331Z,26.40
2022-12-08T17:36:29.491Z,26.25
2022-12-08T17:38:58.333Z,29.27
2022-12-08T17:41:24.999Z,32.22
2022-12-08T17:43:51.710Z,30.38
2022-12-08T17:46:19.029Z,31.67
2022-12-08T17:48:45.710Z,29.98
2022-12-08T17:51:12.288Z,29.42
2022-12-08T17:53:40.828Z,28.48
2022-12-08T17:56:18.345Z,31.73
2022-12-08T17:58:46.616Z,32.30
2022-12-08T18:01:16.431Z,30.63
2022-12-08T18:03:43.119Z,34.00
2022-12-08T18:06:12.380Z,39.83
2022-12-08T18:08:40.115Z,38.08
2022-12-08T18:11:12.362Z,39.83
2022-12-08T18:13:39.008Z,35.30
2022-12-08T18:16:05.743Z,33.10
2022-12-08T18:18:32.319Z,34.90
2022-12-08T18:20:58.872Z,36.40
2022-12-08T18:23:25.418Z,38.95
2022-12-08T18:25:51.998Z,36.42
2022-12-08T18:28:18.595Z,32.83
2022-12-08T18:30:45.225Z,26.05
2022-12-08T18:33:11.844Z,31.52
2022-12-08T18:35:41.646Z,32.17
2022-12-08T18:38:08.227Z,34.78
2022-12-08T18:40:34.846Z,28.98
2022-12-08T18:43:01.468Z,29.17
2022-12-08T18:45:28.194Z,34.03
2022-12-08T18:47:55.008Z,28.95
2022-12-08T18:50:21.581Z,24.60
2022-12-08T18:52:48.329Z,37.33
2022-12-08T18:55:15.595Z,37.55
2022-12-08T18:57:43.331Z,36.85
2022-12-08T19:00:13.467Z,46.15
2022-12-08T19:02:41.048Z,44.60
2022-12-08T19:05:10.291Z,43.38
2022-12-08T19:07:37.315Z,37.35
2022-12-08T19:10:05.878Z,34.83
2022-12-08T19:12:32.749Z,37.92
2022-12-08T19:14:59.345Z,31.65
2022-12-08T19:17:26.044Z,27.77
2022-12-08T19:19:52.649Z,21.95
2022-12-08T19:22:19.187Z,24.30
2022-12-08T19:24:46.244Z,21.75
2022-12-08T19:27:12.789Z,22.05
2022-12-08T19:29:39.437Z,25.85
2022-12-08T19:32:06.164Z,22.92
2022-12-08T19:34:32.770Z,22.50
2022-12-08T19:36:59.348Z,21.55
2022-12-08T19:39:44.441Z,18.23
2022-12-08T19:42:38.602Z,17.83
2022-12-08T19:45:11.922Z,16.58
2022-12-08T19:47:39.410Z,16.60
2022-12-08T19:50:26.429Z,22.55
2022-12-08T19:52:53.258Z,28.13
2022-12-08T19:55:20.577Z,28.17
2022-12-08T19:57:47.187Z,27.80
2022-12-08T20:00:14.205Z,30.75
2022-12-08T20:02:40.906Z,38.30
2022-12-08T20:05:08.788Z,36.15
2022-12-08T20:07:35.474Z,26.23
2022-12-08T20:10:05.553Z,24.95
2022-12-08T20:12:32.403Z,26.85
2022-12-08T20:14:58.934Z,29.45
2022-12-08T20:17:25.598Z,35.53
2022-12-08T20:19:52.322Z,38.42
2022-12-08T20:22:18.891Z,36.75
2022-12-08T20:24:48.938Z,30.27
2022-12-08T20:27:18.877Z,27.17
2022-12-08T20:29:45.443Z,28.27
2022-12-08T20:32:12.190Z,29.17
2022-12-08T20:34:38.798Z,27.92
2022-12-08T20:37:05.506Z,21.63
2022-12-08T20:39:32.120Z,19.67
2022-12-08T20:42:00.121Z,27.55
2022-12-08T20:44:29.461Z,25.50
2022-12-08T20:46:56.472Z,26.10
2022-12-08T20:49:23.383Z,24.80
2022-12-08T20:51:50.163Z,25.05
2022-12-08T20:54:16.871Z,20.60
2022-12-08T20:56:48.060Z,20.23
2022-12-08T20:59:20.498Z,20.00
2022-12-08T21:01:47.299Z,17.40
2022-12-08T21:04:14.161Z,16.88
2022-12-08T21:06:40.980Z,18.05
2022-12-08T21:09:07.781Z,17.10
2022-12-08T21:11:35.857Z,14.45
2022-12-08T21:14:02.723Z,15.13
2022-12-08T21:16:29.475Z,14.75
2022-12-08T21:18:56.525Z,14.85
2022-12-08T21:21:23.260Z,14.32
2022-12-08T21:23:50.115Z,18.05
2022-12-08T21:26:20.518Z,15.18
2022-12-08T21:28:47.668Z,16.10
2022-12-08T21:31:17.207Z,19.20
2022-12-08T21:33:44.423Z,16.02
2022-12-08T21:36:14.046Z,16.60
2022-12-08T21:38:41.195Z,21.67
2022-12-08T21:41:11.396Z,17.42
2022-12-08T21:43:38.082Z,16.73
2022-12-08T21:46:05.938Z,16.35
2022-12-08T21:48:32.939Z,17.35
2022-12-08T21:51:06.121Z,16.52
2022-12-08T21:53:32.765Z,15.68
2022-12-08T21:55:59.484Z,15.00
2022-12-08T21:58:26.423Z,16.23
2022-12-08T22:00:53.352Z,15.70
2022-12-08T22:03:20.246Z,13.80
2022-12-08T22:05:47.027Z,14.52
2022-12-08T22:08:13.806Z,13.13
2022-12-08T22:10:40.694Z,16.17
2022-12-08T22:13:07.339Z,13.68
2022-12-08T22:15:34.212Z,13.63
2022-12-08T22:18:01.081Z,13.30
2022-12-08T22:20:27.815Z,13.75
2022-12-08T22:22:54.558Z,14.98
2022-12-08T22:25:21.215Z,17.27
2022-12-08T22:27:47.871Z,16.10
2022-12-08T22:30:14.576Z,17.13
2022-12-08T22:32:41.968Z,19.90
2022-12-08T22:35:09.628Z,20.83
2022-12-08T22:37:36.315Z,18.98
2022-12-08T22:40:03.186Z,15.90
2022-12-08T22:42:30.228Z,15.82
2022-12-08T22:44:56.804Z,14.32
2022-12-08T22:47:23.445Z,14.13
2022-12-08T22:49:49.987Z,14.60
2022-12-08T22:52:16.684Z,16.15
2022-12-08T22:54:43.268Z,17.08
2022-12-08T22:57:10.267Z,14.95
2022-12-08T22:59:37.622Z,14.45
2022-12-08T23:02:04.175Z,16.58
2022-12-08T23:04:30.933Z,15.82
2022-12-08T23:06:57.787Z,16.02
2022-12-08T23:09:24.372Z,16.15
2022-12-08T23:11:51.037Z,13.43
2022-12-08T23:14:17.805Z,14.70
2022-12-08T23:16:44.893Z,14.18
2022-12-08T23:19:11.546Z,15.00
2022-12-08T23:21:38.316Z,13.65
2022-12-08T23:24:05.315Z,14.20
2022-12-08T23:26:33.692Z,12.98
2022-12-08T23:29:01.199Z,14.70
2022-12-08T23:31:28.468Z,12.88
2022-12-08T23:33:55.599Z,12.85
2022-12-08T23:36:26.267Z,14.40
2022-12-08T23:38:54.259Z,13.52
2022-12-08T23:41:21.361Z,13.73
2022-12-08T23:43:50.233Z,14.23
2022-12-08T23:46:19.729Z,13.63
2022-12-08T23:48:46.566Z,14.75
2022-12-08T23:51:13.675Z,13.70
2022-12-08T23:53:40.661Z,12.70
2022-12-08T23:56:10.590Z,14.20
2022-12-08T23:58:37.568Z,13.23
